createdAt,value
2018-12-03T00:02:16.171Z,85.86
2018-12-03T00:04:45.553Z,86.11
2018-12-03T00:07:15.052Z,86.27
2018-12-03T00:09:44.440Z,86.11
2018-12-03T00:12:13.731Z,86.42
2018-12-03T00:14:43.769Z,86.76
2018-12-03T00:17:13.170Z,86.73
2018-12-03T00:19:43.256Z,87.08
2018-12-03T00:22:12.608Z,87.52
2018-12-03T00:24:42.026Z,87.75
2018-12-03T00:27:11.588Z,87.85
2018-12-03T00:29:41.150Z,88.18
2018-12-03T00:32:10.538Z,88.41
2018-12-03T00:34:39.977Z,88.39
2018-12-03T00:37:09.334Z,88.30
2018-12-03T00:39:38.918Z,88.38
2018-12-03T00:42:08.487Z,88.72
2018-12-03T00:44:38.105Z,88.81
2018-12-03T00:47:07.424Z,89.18
2018-12-03T00:49:36.896Z,89.39
2018-12-03T00:52:06.594Z,89.73
2018-12-03T00:54:36.188Z,90.12
2018-12-03T00:57:06.248Z,90.21
2018-12-03T00:59:35.645Z,90.33
2018-12-03T01:02:05.333Z,90.83
2018-12-03T01:04:34.680Z,91.02
2018-12-03T01:07:04.052Z,90.99
2018-12-03T01:09:33.457Z,91.18
2018-12-03T01:12:02.774Z,91.23
2018-12-03T01:14:32.396Z,91.10
2018-12-03T01:17:01.997Z,91.03
2018-12-03T01:19:31.280Z,91.08
2018-12-03T01:22:00.750Z,91.03
2018-12-03T01:24:30.189Z,91.04
2018-12-03T01:26:59.544Z,90.96
2018-12-03T01:29:28.868Z,90.85
2018-12-03T01:31:58.436Z,90.74
2018-12-03T01:34:27.900Z,90.81
2018-12-03T01:36:57.846Z,90.61
2018-12-03T01:39:27.308Z,90.55
2018-12-03T01:41:56.764Z,90.44
2018-12-03T01:44:26.151Z,90.17
2018-12-03T01:46:55.762Z,90.28
2018-12-03T01:49:25.212Z,90.35
2018-12-03T01:51:54.707Z,90.36
2018-12-03T01:54:24.089Z,90.34
2018-12-03T01:56:53.480Z,90.15
2018-12-03T01:59:22.955Z,89.99
2018-12-03T02:01:52.410Z,89.91
2018-12-03T02:04:21.824Z,89.88
2018-12-03T02:06:51.194Z,90.06
2018-12-03T02:09:20.562Z,90.05
2018-12-03T02:11:49.894Z,90.17
2018-12-03T02:14:19.262Z,90.16
2018-12-03T02:16:48.676Z,90.14
2018-12-03T02:19:18.060Z,90.16
2018-12-03T02:21:47.403Z,90.23
2018-12-03T02:24:16.816Z,90.18
2018-12-03T02:26:46.160Z,90.19
2018-12-03T02:29:15.480Z,90.32
2018-12-03T02:31:44.865Z,90.48
2018-12-03T02:34:14.285Z,90.39
2018-12-03T02:36:43.679Z,90.31
2018-12-03T02:39:12.991Z,90.35
2018-12-03T02:41:42.397Z,90.42
2018-12-03T02:44:11.728Z,90.39
2018-12-03T02:46:41.059Z,90.28
2018-12-03T02:49:10.440Z,90.19
2018-12-03T02:51:39.809Z,90.09
2018-12-03T02:54:09.226Z,90.06
2018-12-03T02:56:38.576Z,89.93
2018-12-03T02:59:07.930Z,89.88
2018-12-03T03:01:37.308Z,89.88
2018-12-03T03:04:06.943Z,89.77
2018-12-03T03:06:36.391Z,89.76
2018-12-03T03:09:09.568Z,89.71
2018-12-03T03:11:38.987Z,89.93
2018-12-03T03:14:08.345Z,89.94
2018-12-03T03:16:37.717Z,89.93
2018-12-03T03:19:07.105Z,89.82
2018-12-03T03:21:36.451Z,89.74
2018-12-03T03:24:06.438Z,89.75
2018-12-03T03:26:35.771Z,89.57
2018-12-03T03:29:05.484Z,89.86
2018-12-03T03:31:35.121Z,89.79
2018-12-03T03:34:04.517Z,89.75
2018-12-03T03:36:34.061Z,89.85
2018-12-03T03:39:03.765Z,90.08
2018-12-03T03:41:33.103Z,90.11
2018-12-03T03:44:02.641Z,90.04
2018-12-03T03:46:32.000Z,90.17
2018-12-03T03:49:01.473Z,90.22
2018-12-03T03:51:30.793Z,90.05
2018-12-03T03:54:00.135Z,90.10
2018-12-03T03:56:29.663Z,90.06
2018-12-03T03:58:59.049Z,90.10
2018-12-03T04:01:28.436Z,89.96
2018-12-03T04:03:57.846Z,89.98
2018-12-03T04:06:27.223Z,89.94
2018-12-03T04:08:56.715Z,89.98
2018-12-03T04:11:26.175Z,89.86
2018-12-03T04:13:55.577Z,89.73
2018-12-03T04:16:24.957Z,89.92
2018-12-03T04:18:54.380Z,89.64
2018-12-03T04:21:23.766Z,89.41
2018-12-03T04:23:53.315Z,89.17
2018-12-03T04:26:22.798Z,89.11
2018-12-03T04:28:52.186Z,88.96
2018-12-03T04:31:21.761Z,88.95
2018-12-03T04:33:51.192Z,89.03
2018-12-03T04:36:20.536Z,88.83
2018-12-03T04:38:49.895Z,89.00
2018-12-03T04:41:19.227Z,88.97
2018-12-03T04:43:48.681Z,88.89
2018-12-03T04:46:18.502Z,88.78
2018-12-03T04:48:47.820Z,88.53
2018-12-03T04:51:17.538Z,88.35
2018-12-03T04:53:46.922Z,88.24
2018-12-03T04:56:16.350Z,88.04
2018-12-03T04:58:45.584Z,87.73
2018-12-03T05:01:14.984Z,87.31
2018-12-03T05:03:53.112Z,87.10
2018-12-03T05:06:22.462Z,86.83
2018-12-03T05:08:51.982Z,86.64
2018-12-03T05:11:21.412Z,86.40
2018-12-03T05:13:50.791Z,86.32
2018-12-03T05:16:20.152Z,86.27
2018-12-03T05:18:49.484Z,86.18
2018-12-03T05:21:18.939Z,86.24
2018-12-03T05:23:48.534Z,85.96
2018-12-03T05:26:18.063Z,86.26
2018-12-03T05:28:47.532Z,86.29
2018-12-03T05:31:17.723Z,86.44
2018-12-03T05:33:47.204Z,86.46
2018-12-03T05:36:16.709Z,86.56
2018-12-03T05:38:46.178Z,86.60
2018-12-03T05:41:15.751Z,86.90
2018-12-03T05:43:45.311Z,87.21
2018-12-03T05:46:14.628Z,87.42
2018-12-03T05:48:44.158Z,87.77
2018-12-03T05:51:13.503Z,88.16
2018-12-03T05:53:42.881Z,88.26
2018-12-03T05:56:13.253Z,88.66
2018-12-03T05:58:42.773Z,89.11
2018-12-03T06:01:12.387Z,89.82
2018-12-03T06:03:42.299Z,90.35
2018-12-03T06:06:11.659Z,90.79
2018-12-03T06:08:41.041Z,90.95
2018-12-03T06:11:10.655Z,90.88
2018-12-03T06:13:40.241Z,90.95
2018-12-03T06:16:09.593Z,90.89
2018-12-03T06:18:39.010Z,91.09
2018-12-03T06:21:08.465Z,91.75
2018-12-03T06:23:37.730Z,92.27
2018-12-03T06:26:07.067Z,92.72
2018-12-03T06:28:36.351Z,92.81
2018-12-03T06:31:05.681Z,93.25
2018-12-03T06:33:35.179Z,93.44
2018-12-03T06:36:04.685Z,93.59
2018-12-03T06:38:34.033Z,93.73
2018-12-03T06:41:03.347Z,93.87
2018-12-03T06:43:32.783Z,93.51
2018-12-03T06:46:02.184Z,93.71
2018-12-03T06:48:31.820Z,93.49
2018-12-03T06:51:01.177Z,93.29
2018-12-03T06:53:30.611Z,93.42
2018-12-03T06:56:00.002Z,93.31
2018-12-03T06:58:29.329Z,93.58
2018-12-03T07:00:58.817Z,93.67
2018-12-03T07:03:28.146Z,94.01
2018-12-03T07:05:57.514Z,93.93
2018-12-03T07:08:26.869Z,93.59
2018-12-03T07:10:56.227Z,93.38
2018-12-03T07:13:25.700Z,93.68
2018-12-03T07:15:56.608Z,93.70
2018-12-03T07:18:26.369Z,93.89
2018-12-03T07:20:55.673Z,93.90
2018-12-03T07:23:25.124Z,94.08
2018-12-03T07:25:54.478Z,93.90
2018-12-03T07:28:23.754Z,93.71
2018-12-03T07:30:53.046Z,93.67
2018-12-03T07:33:22.437Z,93.13
2018-12-03T07:35:51.815Z,93.51
2018-12-03T07:38:21.199Z,93.67
2018-12-03T07:40:50.512Z,93.73
2018-12-03T07:43:19.973Z,93.57
2018-12-03T07:45:49.882Z,93.52
2018-12-03T07:48:19.560Z,93.34
2018-12-03T07:50:49.002Z,93.42
2018-12-03T07:53:18.345Z,93.59
2018-12-03T07:55:47.716Z,92.31
2018-12-03T07:58:22.134Z,92.57
2018-12-03T08:00:53.762Z,92.64
2018-12-03T08:03:23.420Z,92.08
2018-12-03T08:05:52.703Z,92.33
2018-12-03T08:08:22.110Z,92.21
2018-12-03T08:10:53.377Z,92.29
2018-12-03T08:13:22.652Z,92.19
2018-12-03T08:15:52.196Z,91.87
2018-12-03T08:18:23.238Z,91.92
2018-12-03T08:21:12.708Z,91.29
2018-12-03T08:23:53.904Z,90.52
2018-12-03T08:26:23.241Z,90.04
2018-12-03T08:28:52.827Z,89.61
2018-12-03T08:31:22.459Z,88.82
2018-12-03T08:33:51.989Z,88.42
2018-12-03T08:36:21.600Z,88.38
2018-12-03T08:38:50.938Z,88.01
2018-12-03T08:41:20.390Z,87.95
2018-12-03T08:43:49.722Z,87.65
2018-12-03T08:46:19.098Z,87.63
2018-12-03T08:48:48.481Z,87.10
2018-12-03T08:51:17.928Z,86.19
2018-12-03T08:53:48.636Z,86.33
2018-12-03T08:56:17.920Z,86.59
2018-12-03T08:58:47.342Z,86.25
2018-12-03T09:01:18.297Z,85.59
2018-12-03T09:04:14.483Z,84.82
2018-12-03T09:06:43.932Z,84.49
2018-12-03T09:09:15.271Z,84.07
2018-12-03T09:11:47.112Z,83.55
2018-12-03T09:14:17.705Z,82.53
2018-12-03T09:16:47.877Z,82.33
2018-12-03T09:19:17.180Z,81.38
2018-12-03T09:21:46.790Z,81.91
2018-12-03T09:24:16.926Z,81.34
2018-12-03T09:26:46.354Z,81.12
2018-12-03T09:29:15.941Z,81.10
2018-12-03T09:31:45.422Z,80.34
2018-12-03T09:34:14.748Z,79.86
2018-12-03T09:36:44.114Z,80.34
2018-12-03T09:39:22.441Z,79.93
2018-12-03T09:41:51.844Z,80.23
2018-12-03T09:44:21.408Z,79.34
2018-12-03T09:46:50.798Z,79.46
2018-12-03T09:49:20.208Z,79.58
2018-12-03T09:51:49.953Z,79.95
2018-12-03T09:54:19.809Z,80.41
2018-12-03T09:56:54.043Z,81.00
2018-12-03T09:59:24.844Z,80.14
2018-12-03T10:01:56.382Z,80.09
2018-12-03T10:04:34.094Z,79.36
2018-12-03T10:07:03.880Z,78.60
2018-12-03T10:09:39.454Z,79.52
2018-12-03T10:12:09.788Z,79.13
2018-12-03T10:14:39.276Z,78.49
2018-12-03T10:17:08.752Z,78.48
2018-12-03T10:19:38.167Z,78.59
2018-12-03T10:22:08.319Z,77.88
2018-12-03T10:24:38.427Z,78.36
2018-12-03T10:27:12.536Z,77.92
2018-12-03T10:29:42.606Z,77.79
2018-12-03T10:32:16.463Z,77.30
2018-12-03T10:34:46.150Z,77.08
2018-12-03T10:37:16.095Z,76.25
2018-12-03T10:39:45.706Z,75.61
2018-12-03T10:42:16.841Z,74.85
2018-12-03T10:44:46.703Z,75.12
2018-12-03T10:47:16.136Z,74.71
2018-12-03T10:49:45.529Z,73.54
2018-12-03T10:52:22.432Z,73.45
2018-12-03T10:54:52.263Z,73.53
2018-12-03T10:57:22.786Z,72.99
2018-12-03T10:59:54.121Z,73.01
2018-12-03T11:02:49.117Z,72.01
2018-12-03T11:05:39.774Z,71.56
2018-12-03T11:08:09.584Z,70.92
2018-12-03T11:10:40.660Z,71.77
2018-12-03T11:13:10.305Z,70.79
2018-12-03T11:15:39.647Z,71.00
2018-12-03T11:18:09.113Z,70.73
2018-12-03T11:20:38.773Z,70.78
2018-12-03T11:23:12.563Z,70.11
2018-12-03T11:25:41.832Z,70.07
2018-12-03T11:28:13.409Z,68.00
2018-12-03T11:30:54.313Z,67.83
2018-12-03T11:33:28.147Z,66.55
2018-12-03T11:35:59.250Z,66.38
2018-12-03T11:38:42.882Z,67.51
2018-12-03T11:41:12.762Z,68.33
2018-12-03T11:43:42.285Z,69.71
2018-12-03T11:46:11.897Z,70.21
2018-12-03T11:48:42.546Z,70.33
2018-12-03T11:51:15.810Z,69.90
2018-12-03T11:53:46.256Z,71.01
2018-12-03T11:56:15.612Z,70.91
2018-12-03T11:58:45.000Z,70.73
2018-12-03T12:01:14.752Z,70.58
2018-12-03T12:03:44.153Z,71.06
2018-12-03T12:06:13.612Z,71.30
2018-12-03T12:08:43.115Z,71.26
2018-12-03T12:11:12.586Z,71.31
2018-12-03T12:13:42.022Z,70.97
2018-12-03T12:16:15.165Z,70.03
2018-12-03T12:18:41.296Z,69.23
2018-12-03T12:21:11.156Z,67.16
2018-12-03T12:23:40.472Z,66.34
2018-12-03T12:26:10.066Z,66.22
2018-12-03T12:28:39.904Z,65.97
2018-12-03T12:31:09.488Z,65.74
2018-12-03T12:33:39.130Z,65.28
2018-12-03T12:36:08.723Z,64.54
2018-12-03T12:38:38.091Z,65.43
2018-12-03T12:41:07.514Z,64.14
2018-12-03T12:43:38.549Z,63.33
2018-12-03T12:46:10.059Z,62.40
2018-12-03T12:48:39.492Z,62.00
2018-12-03T12:51:08.862Z,62.12
2018-12-03T12:53:38.525Z,61.58
2018-12-03T12:56:08.914Z,61.18
2018-12-03T12:58:38.285Z,61.27
2018-12-03T13:01:07.666Z,59.11
2018-12-03T13:03:37.292Z,57.70
2018-12-03T13:06:06.775Z,56.93
2018-12-03T13:08:36.650Z,55.55
2018-12-03T13:11:06.776Z,54.19
2018-12-03T13:13:36.281Z,54.10
2018-12-03T13:16:06.072Z,53.10
2018-12-03T13:18:35.576Z,53.12
2018-12-03T13:21:06.114Z,52.37
2018-12-03T13:23:35.588Z,52.23
2018-12-03T13:26:06.195Z,51.34
2018-12-03T13:28:35.744Z,51.12
2018-12-03T13:31:05.674Z,51.62
2018-12-03T13:33:35.270Z,51.57
2018-12-03T13:36:05.122Z,51.89
2018-12-03T13:38:35.308Z,53.87
2018-12-03T13:41:04.959Z,52.87
2018-12-03T13:43:34.504Z,51.33
2018-12-03T13:46:03.887Z,51.95
2018-12-03T13:48:33.500Z,52.34
2018-12-03T13:51:03.098Z,52.62
2018-12-03T13:53:33.650Z,52.68
2018-12-03T13:56:03.144Z,53.55
2018-12-03T13:58:32.611Z,53.51
2018-12-03T14:01:02.180Z,55.84
2018-12-03T14:03:33.704Z,54.76
2018-12-03T14:06:36.794Z,53.70
2018-12-03T14:09:23.566Z,54.95
2018-12-03T14:12:03.044Z,55.99
2018-12-03T14:15:10.421Z,56.51
2018-12-03T14:18:31.019Z,58.68
2018-12-03T14:21:27.727Z,59.96
2018-12-03T14:23:59.257Z,61.52
2018-12-03T14:26:28.959Z,62.86
2018-12-03T14:28:58.489Z,63.10
2018-12-03T14:31:28.076Z,64.04
2018-12-03T14:33:57.575Z,64.45
2018-12-03T14:36:27.131Z,65.26
2018-12-03T14:38:56.677Z,66.39
2018-12-03T14:41:26.108Z,66.82
2018-12-03T14:43:56.489Z,67.11
2018-12-03T14:46:25.929Z,67.66
2018-12-03T14:48:55.615Z,68.05
2018-12-03T14:51:25.304Z,68.55
2018-12-03T14:53:54.718Z,68.85
2018-12-03T14:56:24.456Z,69.00
2018-12-03T14:58:54.143Z,69.25
2018-12-03T15:01:23.721Z,69.43
2018-12-03T15:03:53.382Z,69.54
2018-12-03T15:06:23.728Z,69.67
2018-12-03T15:08:53.167Z,70.14
2018-12-03T15:11:22.683Z,70.32
2018-12-03T15:13:52.114Z,70.89
2018-12-03T15:16:21.845Z,71.00
2018-12-03T15:18:51.559Z,71.32
2018-12-03T15:21:20.862Z,71.84
2018-12-03T15:23:50.400Z,72.07
2018-12-03T15:26:19.716Z,72.35
2018-12-03T15:28:49.287Z,72.56
2018-12-03T15:31:18.656Z,73.04
2018-12-03T15:33:48.065Z,73.33
2018-12-03T15:36:17.571Z,73.62
2018-12-03T15:38:47.019Z,73.86
2018-12-03T15:41:16.444Z,74.18
2018-12-03T15:43:45.856Z,74.46
2018-12-03T15:46:15.265Z,74.55
2018-12-03T15:48:44.607Z,74.47
2018-12-03T15:51:14.239Z,74.72
2018-12-03T15:53:43.610Z,74.92
2018-12-03T15:56:13.043Z,74.87
2018-12-03T15:58:42.827Z,74.82
2018-12-03T16:01:14.554Z,75.01
2018-12-03T16:03:42.637Z,75.00
2018-12-03T16:06:12.143Z,75.12
2018-12-03T16:08:41.526Z,75.30
2018-12-03T16:11:11.218Z,75.22
2018-12-03T16:13:40.864Z,75.39
2018-12-03T16:16:10.600Z,75.41
2018-12-03T16:18:39.910Z,75.65
2018-12-03T16:21:09.363Z,75.62
2018-12-03T16:23:38.847Z,75.90
2018-12-03T16:26:08.188Z,76.02
2018-12-03T16:28:37.753Z,76.39
2018-12-03T16:31:07.155Z,76.61
2018-12-03T16:33:36.706Z,76.71
2018-12-03T16:36:06.086Z,76.79
2018-12-03T16:38:35.540Z,76.77
2018-12-03T16:41:05.209Z,76.86
2018-12-03T16:43:36.499Z,76.92
2018-12-03T16:46:05.898Z,77.10
2018-12-03T16:48:35.329Z,77.19
2018-12-03T16:51:04.764Z,77.33
2018-12-03T16:53:34.256Z,77.39
2018-12-03T16:56:03.798Z,77.69
2018-12-03T16:58:33.282Z,77.61
2018-12-03T17:01:02.671Z,77.61
2018-12-03T17:03:32.202Z,77.99
2018-12-03T17:06:01.806Z,79.24
2018-12-03T17:08:31.744Z,76.77
2018-12-03T17:11:01.425Z,76.80
2018-12-03T17:13:30.990Z,76.78
2018-12-03T17:16:00.977Z,76.99
2018-12-03T17:18:30.746Z,77.19
2018-12-03T17:21:33.016Z,77.36
2018-12-03T17:24:10.248Z,77.53
2018-12-03T17:26:40.929Z,77.79
2018-12-03T17:29:11.188Z,78.07
2018-12-03T17:31:41.269Z,77.98
2018-12-03T17:34:10.800Z,78.36
2018-12-03T17:36:40.794Z,78.68
2018-12-03T17:39:10.732Z,78.94
2018-12-03T17:41:40.554Z,79.14
2018-12-03T17:44:10.316Z,79.34
2018-12-03T17:46:39.862Z,79.45
2018-12-03T17:49:09.222Z,79.49
2018-12-03T17:51:39.243Z,79.48
2018-12-03T17:54:10.216Z,79.65
2018-12-03T17:56:40.437Z,79.65
2018-12-03T17:59:12.165Z,79.75
2018-12-03T18:01:41.895Z,79.80
2018-12-03T18:04:15.299Z,79.66
2018-12-03T18:06:46.048Z,79.77
2018-12-03T18:09:15.920Z,79.96
2018-12-03T18:11:45.905Z,79.97
2018-12-03T18:14:15.715Z,79.96
2018-12-03T18:16:45.228Z,80.02
2018-12-03T18:19:15.221Z,80.18
2018-12-03T18:21:45.941Z,80.16
2018-12-03T18:24:15.853Z,80.17
2018-12-03T18:26:45.897Z,80.16
2018-12-03T18:29:16.332Z,80.20
2018-12-03T18:31:46.322Z,80.20
2018-12-03T18:34:15.970Z,80.36
2018-12-03T18:36:45.321Z,80.36
2018-12-03T18:39:15.037Z,80.32
2018-12-03T18:41:44.680Z,80.45
2018-12-03T18:44:14.841Z,80.66
2018-12-03T18:46:45.249Z,80.70
2018-12-03T18:49:32.894Z,80.72
2018-12-03T18:52:05.033Z,80.77
2018-12-03T18:54:34.791Z,80.65
2018-12-03T18:57:04.431Z,80.89
2018-12-03T18:59:34.364Z,80.89
2018-12-03T19:02:04.012Z,80.99
2018-12-03T19:04:33.877Z,81.05
2018-12-03T19:07:04.013Z,80.93
2018-12-03T19:09:34.440Z,81.03
2018-12-03T19:12:04.732Z,81.03
2018-12-03T19:14:35.686Z,81.16
2018-12-03T19:17:05.685Z,81.18
2018-12-03T19:19:35.591Z,81.16
2018-12-03T19:22:06.768Z,81.34
2018-12-03T19:24:40.217Z,81.34
2018-12-03T19:27:08.556Z,81.32
2018-12-03T19:29:39.140Z,81.29
2018-12-03T19:32:08.985Z,81.40
2018-12-03T19:34:38.522Z,81.39
2018-12-03T19:37:10.627Z,81.27
2018-12-03T19:39:38.995Z,81.23
2018-12-03T19:42:09.642Z,81.21
2018-12-03T19:44:39.790Z,81.33
2018-12-03T19:47:10.357Z,81.41
2018-12-03T19:49:40.302Z,81.21
2018-12-03T19:52:12.023Z,81.42
2018-12-03T19:54:43.665Z,81.42
2018-12-03T19:57:15.292Z,81.32
2018-12-03T19:59:50.835Z,81.17
2018-12-03T20:02:21.345Z,81.06
2018-12-03T20:04:54.449Z,81.08
2018-12-03T20:07:24.138Z,80.79
2018-12-03T20:09:57.895Z,80.77
2018-12-03T20:12:31.695Z,80.84
2018-12-03T20:15:05.457Z,80.64
2018-12-03T20:17:37.961Z,80.56
2018-12-03T20:20:13.833Z,80.54
2018-12-03T20:23:23.173Z,80.56
2018-12-03T20:26:05.684Z,80.60
2018-12-03T20:29:00.586Z,80.40
2018-12-03T20:32:01.077Z,80.42
2018-12-03T20:34:58.526Z,80.36
2018-12-03T20:37:55.698Z,80.37
2018-12-03T20:40:34.138Z,80.36
2018-12-03T20:43:08.643Z,80.23
2018-12-03T20:46:03.119Z,80.11
2018-12-03T20:49:04.504Z,80.19
2018-12-03T20:51:42.030Z,80.26
2018-12-03T20:54:11.914Z,80.43
2018-12-03T20:56:41.522Z,80.38
2018-12-03T20:59:12.024Z,80.37
2018-12-03T21:01:44.256Z,80.35
2018-12-03T21:04:14.029Z,80.37
2018-12-03T21:06:43.833Z,80.38
2018-12-03T21:09:13.323Z,80.51
2018-12-03T21:11:43.103Z,80.52
2018-12-03T21:14:12.505Z,80.48
2018-12-03T21:16:42.559Z,80.56
2018-12-03T21:19:12.400Z,80.60
2018-12-03T21:21:42.419Z,80.80
2018-12-03T21:24:11.934Z,80.89
2018-12-03T21:26:42.109Z,80.88
2018-12-03T21:29:11.757Z,80.59
2018-12-03T21:31:41.189Z,80.89
2018-12-03T21:34:11.227Z,80.66
2018-12-03T21:36:41.199Z,80.54
2018-12-03T21:39:11.098Z,81.07
2018-12-03T21:41:42.256Z,81.05
2018-12-03T21:44:13.089Z,81.44
2018-12-03T21:46:43.448Z,81.70
2018-12-03T21:49:12.799Z,81.66
2018-12-03T21:51:42.824Z,81.21
2018-12-03T21:54:12.373Z,81.17
2018-12-03T21:56:42.521Z,81.24
2018-12-03T21:59:12.493Z,81.24
2018-12-03T22:01:42.861Z,80.89
2018-12-03T22:04:12.264Z,81.23
2018-12-03T22:06:41.978Z,81.29
2018-12-03T22:09:11.552Z,81.57
2018-12-03T22:11:40.873Z,81.33
2018-12-03T22:14:12.798Z,81.25
2018-12-03T22:16:41.101Z,81.61
2018-12-03T22:19:10.639Z,81.23
2018-12-03T22:21:40.098Z,81.41
2018-12-03T22:24:11.210Z,80.99
2018-12-03T22:26:41.037Z,80.49
2018-12-03T22:29:10.566Z,80.16
2018-12-03T22:31:40.088Z,79.72
2018-12-03T22:34:11.243Z,79.42
2018-12-03T22:36:43.250Z,79.27
2018-12-03T22:39:14.945Z,78.93
2018-12-03T22:41:46.256Z,78.95
2018-12-03T22:44:21.918Z,78.87
2018-12-03T22:46:55.678Z,78.71
2018-12-03T22:49:25.380Z,78.82
2018-12-03T22:51:58.976Z,78.48
2018-12-03T22:54:30.851Z,77.99
2018-12-03T22:57:01.449Z,78.12
2018-12-03T22:59:38.531Z,78.18
2018-12-03T23:02:16.957Z,78.22
2018-12-03T23:04:47.568Z,77.83
2018-12-03T23:07:19.840Z,78.22
2018-12-03T23:10:00.505Z,78.51
2018-12-03T23:12:35.780Z,80.84
2018-12-03T23:15:07.349Z,81.80
2018-12-03T23:17:37.257Z,82.98
2018-12-03T23:20:08.066Z,85.10
2018-12-03T23:22:37.995Z,85.10
2018-12-03T23:25:07.805Z,85.52
2018-12-03T23:27:38.721Z,86.68
2018-12-03T23:30:11.798Z,87.46
2018-12-03T23:32:41.954Z,85.44
2018-12-03T23:35:11.817Z,83.01
2018-12-03T23:37:42.130Z,83.01
2018-12-03T23:40:11.796Z,83.74
2018-12-03T23:42:41.457Z,85.56
2018-12-03T23:45:11.297Z,86.16
2018-12-03T23:47:41.024Z,86.73
2018-12-03T23:50:11.044Z,86.73
2018-12-03T23:52:43.808Z,86.38
2018-12-03T23:55:13.724Z,86.47
2018-12-03T23:57:44.459Z,85.94
